TimeMST,TemperatureF,Dew PointF,Humidity,Sea Level PressureIn,VisibilityMPH,Wind Direction,Wind SpeedMPH,Gust SpeedMPH,PrecipitationIn,Events,Conditions,WindDirDegrees,DateUTC
12:53 AM,19.9,16.0,85,30.20,10.0,Calm,Calm,-,N/A,,Clear,0,2012-02-07 07:53:00
1:53 AM,19.0,15.1,85,30.21,10.0,East,5.8,-,N/A,,Clear,80,2012-02-07 08:53:00
2:53 AM,18.0,14.0,84,30.21,10.0,NE,5.8,-,N/A,,Clear,40,2012-02-07 09:53:00
3:53 AM,16.0,12.0,84,30.22,10.0,ENE,3.5,-,N/A,,Clear,60,2012-02-07 10:53:00
4:53 AM,15.1,10.9,84,30.27,10.0,NE,5.8,-,N/A,,Clear,50,2012-02-07 11:53:00
5:53 AM,16.0,10.9,81,30.28,10.0,NNW,3.5,-,N/A,,Clear,330,2012-02-07 12:53:00
6:53 AM,14.0,10.0,84,30.31,10.0,Calm,Calm,-,N/A,,Clear,0,2012-02-07 13:53:00
7:53 AM,16.0,12.0,84,30.33,10.0,Calm,Calm,-,N/A,,Clear,0,2012-02-07 14:53:00
8:53 AM,21.9,15.1,75,30.33,10.0,ENE,3.5,-,N/A,,Clear,70,2012-02-07 15:53:00
9:53 AM,28.0,18.0,66,30.32,10.0,East,4.6,-,N/A,,Clear,80,2012-02-07 16:53:00
10:53 AM,32.0,18.0,56,30.32,10.0,Calm,Calm,-,N/A,,Clear,0,2012-02-07 17:53:00
11:53 AM,36.0,21.0,55,30.28,10.0,SSW,4.6,-,N/A,,Clear,200,2012-02-07 18:53:00
12:53 PM,39.0,19.9,46,30.25,10.0,Calm,Calm,-,N/A,,Clear,0,2012-02-07 19:53:00
1:53 PM,41.0,23.0,49,30.23,10.0,SSW,11.5,-,N/A,,Clear,210,2012-02-07 20:53:00
2:53 PM,41.0,21.9,47,30.22,10.0,SSW,5.8,-,N/A,,Clear,210,2012-02-07 21:53:00
3:53 PM,42.1,18.0,38,30.23,10.0,Calm,Calm,-,N/A,,Clear,0,2012-02-07 22:53:00
4:53 PM,41.0,17.1,38,30.23,10.0,ESE,4.6,-,N/A,,Clear,120,2012-02-07 23:53:00
5:53 PM,33.1,18.0,54,30.27,10.0,SE,4.6,-,N/A,,Clear,140,2012-02-08 00:53:00
6:53 PM,32.0,19.9,61,30.30,10.0,Calm,Calm,-,N/A,,Clear,0,2012-02-08 01:53:00
7:53 PM,27.0,19.9,75,30.32,10.0,ENE,6.9,-,N/A,,Clear,60,2012-02-08 02:53:00
8:53 PM,27.0,19.9,75,30.32,10.0,East,3.5,-,N/A,,Clear,80,2012-02-08 03:53:00
9:53 PM,26.1,19.0,75,30.31,10.0,Calm,Calm,-,N/A,,Clear,0,2012-02-08 04:53:00
10:53 PM,23.0,18.0,81,30.30,10.0,Calm,Calm,-,N/A,,Clear,0,2012-02-08 05:53:00
11:53 PM,25.0,19.0,78,30.29,10.0,Calm,Calm,-,N/A,,Clear,0,2012-02-08 06:53:00